Time;durP1;ratioP1;P1;durP2;ratioP2;P2;SDS_P1;SDS_P2;PMS_P1;PMS_P2;Temp;Humidity;BMP_temperature;BMP_pressure;BME280_temperature;BME280_humidity;BME280_pressure;Samples;Min_cycle;Max_cycle;Signal;HPM_P1;HPM_P2
2023/04/02 00:01:21;;;;;;;0.75;0.60;;;;;;;;;;5088151;28;20024;-78
2023/04/02 00:03:52;;;;;;;0.50;0.50;;;;;;;;;;5085977;28;20020;-78
2023/04/02 00:06:31;;;;;;;0.40;0.40;;;;;;;;;;5087859;28;20115;-78
2023/04/02 00:09:03;;;;;;;0.82;0.47;;;;;;;;;;5090187;28;20035;-77
2023/04/02 00:11:36;;;;;;;0.60;0.60;;;;;;;;;;5089710;28;20042;-78
2023/04/02 00:14:03;;;;;;;2.78;0.60;;;;;;;;;;5087856;28;20165;-78
2023/04/02 00:16:30;;;;;;;0.40;0.40;;;;;;;;;;5088411;28;20055;-78
2023/04/02 00:19:01;;;;;;;1.65;0.65;;;;;;;;;;5084432;28;20479;-79
2023/04/02 00:21:29;;;;;;;0.90;0.57;;;;;;;;;;5087602;28;20207;-79
2023/04/02 00:23:58;;;;;;;0.60;0.60;;;;;;;;;;5082021;28;20107;-78
2023/04/02 00:26:30;;;;;;;0.88;0.75;;;;;;;;;;5088418;28;20028;-78
2023/04/02 00:28:57;;;;;;;0.40;0.40;;;;;;;;;;5091267;28;20086;-78
2023/04/02 00:31:23;;;;;;;0.40;0.40;;;;;;;;;;5092128;28;20368;-78
2023/04/02 00:33:49;;;;;;;0.85;0.60;;;;;;;;;;5092539;28;20020;-78
2023/04/02 00:36:18;;;;;;;0.30;0.30;;;;;;;;;;5077850;28;20036;-79
2023/04/02 00:38:45;;;;;;;0.40;0.40;;;;;;;;;;5088113;28;20024;-80
2023/04/02 00:41:15;;;;;;;0.45;0.45;;;;;;;;;;5087325;28;20047;-79
2023/04/02 00:43:45;;;;;;;2.15;1.00;;;;;;;;;;5086721;28;20095;-80
2023/04/02 00:46:14;;;;;;;0.77;0.65;;;;;;;;;;5087488;28;20043;-79
2023/04/02 00:48:43;;;;;;;1.52;0.80;;;;;;;;;;5088234;28;20036;-80
2023/04/02 00:51:21;;;;;;;1.25;0.73;;;;;;;;;;5086758;28;20032;-80
2023/04/02 00:53:48;;;;;;;0.35;0.35;;;;;;;;;;5084128;28;20154;-80
2023/04/02 00:56:25;;;;;;;2.40;0.50;;;;;;;;;;5086474;28;20035;-80
2023/04/02 00:58:55;;;;;;;0.60;0.60;;;;;;;;;;5087265;28;20055;-79
2023/04/02 01:01:36;;;;;;;0.38;0.38;;;;;;;;;;5087554;28;20040;-79
2023/04/02 01:04:04;;;;;;;0.40;0.40;;;;;;;;;;5088660;28;20027;-79
2023/04/02 01:06:34;;;;;;;0.50;0.50;;;;;;;;;;5089155;28;20081;-80
2023/04/02 01:09:25;;;;;;;0.30;0.30;;;;;;;;;;5090195;28;20085;-80
2023/04/02 01:11:56;;;;;;;0.40;0.40;;;;;;;;;;5091420;28;20032;-79
2023/04/02 01:14:46;;;;;;;0.20;0.20;;;;;;;;;;5090461;28;20103;-77
2023/04/02 01:17:18;;;;;;;0.73;0.60;;;;;;;;;;5089587;28;20024;-79
2023/04/02 01:20:16;;;;;;;;;;;;;;;;;;5099453;28;20016;-77
2023/04/02 01:23:09;;;;;;;0.55;0.55;;;;;;;;;;5079974;28;19977;-78
2023/04/02 01:25:37;;;;;;;;;;;;;;;;;;5099360;28;20526;-76
2023/04/02 01:28:19;;;;;;;0.50;0.50;;;;;;;;;;5092481;28;19912;-78
2023/04/02 01:30:51;;;;;;;0.40;0.40;;;;;;;;;;5091186;28;20032;-78
2023/04/02 01:33:20;;;;;;;0.52;0.52;;;;;;;;;;5092052;28;20024;-79
2023/04/02 01:35:55;;;;;;;0.60;0.60;;;;;;;;;;5093181;28;20078;-78
2023/04/02 01:38:28;;;;;;;0.50;0.50;;;;;;;;;;5093054;28;20236;-79
2023/04/02 01:41:26;;;;;;;0.50;0.50;;;;;;;;;;5091512;28;20020;-79
2023/04/02 01:44:01;;;;;;;0.55;0.55;;;;;;;;;;5057575;28;20117;-78
2023/04/02 01:46:32;;;;;;;0.40;0.40;;;;;;;;;;5092787;28;20032;-79
2023/04/02 01:49:01;;;;;;;0.40;0.40;;;;;;;;;;5092390;28;20062;-78
2023/04/02 01:51:30;;;;;;;0.57;0.40;;;;;;;;;;5095468;28;20052;-79
2023/04/02 01:53:59;;;;;;;0.20;0.20;;;;;;;;;;5088864;28;20504;-78
2023/04/02 01:56:26;;;;;;;0.40;0.40;;;;;;;;;;5101996;28;20105;-79
2023/04/02 01:58:51;;;;;;;0.40;0.40;;;;;;;;;;5115029;28;20012;-79
2023/04/02 02:01:21;;;;;;;1.55;0.38;;;;;;;;;;5108724;28;20051;-78
2023/04/02 02:03:48;;;;;;;0.60;0.60;;;;;;;;;;5116922;28;20019;-78
2023/04/02 02:06:16;;;;;;;1.02;0.43;;;;;;;;;;5116828;28;20023;-79
2023/04/02 02:08:50;;;;;;;0.55;0.55;;;;;;;;;;5115363;28;20024;-78
2023/04/02 02:11:20;;;;;;;0.50;0.40;;;;;;;;;;5113938;28;20054;-78
2023/04/02 02:13:58;;;;;;;1.00;0.63;;;;;;;;;;5114008;28;20077;-79
2023/04/02 02:16:28;;;;;;;0.47;0.45;;;;;;;;;;5089155;22;20045;-79
2023/04/02 02:19:03;;;;;;;0.43;0.43;;;;;;;;;;5073831;28;20029;-77
2023/04/02 02:21:38;;;;;;;0.40;0.40;;;;;;;;;;5073427;28;20020;-78
2023/04/02 02:24:06;;;;;;;1.17;0.38;;;;;;;;;;5073104;28;20024;-77
2023/04/02 02:26:34;;;;;;;0.40;0.40;;;;;;;;;;5068038;28;20025;-79
2023/04/02 02:29:04;;;;;;;0.47;0.40;;;;;;;;;;5072018;28;20024;-79
2023/04/02 02:31:32;;;;;;;0.75;0.57;;;;;;;;;;5075766;28;20028;-79
2023/04/02 02:34:02;;;;;;;0.47;0.47;;;;;;;;;;5070258;28;20021;-80
2023/04/02 02:36:38;;;;;;;0.98;0.40;;;;;;;;;;5059555;28;20054;-79
2023/04/02 02:39:29;;;;;;;0.82;0.43;;;;;;;;;;5073494;28;20025;-78
2023/04/02 02:41:59;;;;;;;1.13;0.40;;;;;;;;;;5071426;28;20186;-78
2023/04/02 02:44:32;;;;;;;1.45;0.47;;;;;;;;;;5075682;28;20025;-79
2023/04/02 02:47:00;;;;;;;0.35;0.35;;;;;;;;;;5071768;28;20028;-79
2023/04/02 02:49:36;;;;;;;1.45;0.50;;;;;;;;;;5060159;28;20048;-79
2023/04/02 02:52:07;;;;;;;0.50;0.50;;;;;;;;;;5064928;28;20028;-78
2023/04/02 02:54:36;;;;;;;0.45;0.45;;;;;;;;;;5061323;28;20020;-77
2023/04/02 02:57:06;;;;;;;3.03;0.30;;;;;;;;;;5070449;28;20043;-79
2023/04/02 02:59:32;;;;;;;0.40;0.40;;;;;;;;;;5065909;28;20035;-78
2023/04/02 03:01:59;;;;;;;0.50;0.50;;;;;;;;;;5056851;28;20099;-79
2023/04/02 03:04:24;;;;;;;3.05;0.60;;;;;;;;;;5076496;28;20495;-80
2023/04/02 03:06:52;;;;;;;0.40;0.40;;;;;;;;;;5076551;28;20032;-79
2023/04/02 03:09:41;;;;;;;0.55;0.55;;;;;;;;;;5075331;28;20071;-78
2023/04/02 03:12:38;;;;;;;2.10;0.65;;;;;;;;;;5059509;28;20047;-78
2023/04/02 03:15:24;;;;;;;0.40;0.40;;;;;;;;;;5074311;28;20472;-78
2023/04/02 03:17:50;;;;;;;0.50;0.50;;;;;;;;;;5076669;28;20038;-79
2023/04/02 03:20:30;;;;;;;0.68;0.60;;;;;;;;;;5078621;28;20111;-77
2023/04/02 03:23:03;;;;;;;0.40;0.40;;;;;;;;;;5066012;28;20024;-79
2023/04/02 03:25:44;;;;;;;0.40;0.40;;;;;;;;;;5073710;28;20017;-78
2023/04/02 03:28:16;;;;;;;0.40;0.40;;;;;;;;;;5077922;28;20032;-79
2023/04/02 03:31:21;;;;;;;0.30;0.30;;;;;;;;;;5060941;28;20111;-78
2023/04/02 03:33:52;;;;;;;0.68;0.63;;;;;;;;;;5030973;28;20028;-77
2023/04/02 03:36:29;;;;;;;0.68;0.50;;;;;;;;;;5089393;28;20028;-77
2023/04/02 03:39:11;;;;;;;0.45;0.45;;;;;;;;;;5070893;28;20036;-77
2023/04/02 03:41:45;;;;;;;0.40;0.40;;;;;;;;;;5073287;28;20024;-80
2023/04/02 03:44:29;;;;;;;0.40;0.40;;;;;;;;;;5073206;28;20024;-78
2023/04/02 03:47:00;;;;;;;0.50;0.50;;;;;;;;;;5069609;28;20028;-79
2023/04/02 03:49:48;;;;;;;1.98;0.70;;;;;;;;;;5074010;28;20017;-79
2023/04/02 03:52:25;;;;;;;1.60;0.50;;;;;;;;;;5075568;28;20416;-78
2023/04/02 03:54:52;;;;;;;0.20;0.20;;;;;;;;;;5059094;28;20024;-79
2023/04/02 03:57:27;;;;;;;0.65;0.65;;;;;;;;;;5055372;28;20060;-77
2023/04/02 04:00:00;;;;;;;4.28;0.80;;;;;;;;;;5068852;28;20091;-78
2023/04/02 04:02:39;;;;;;;0.40;0.40;;;;;;;;;;5075456;28;20020;-79
2023/04/02 04:05:06;;;;;;;0.50;0.50;;;;;;;;;;5077118;28;20021;-79
2023/04/02 04:07:37;;;;;;;0.43;0.43;;;;;;;;;;5075824;28;20418;-79
2023/04/02 04:10:05;;;;;;;0.50;0.50;;;;;;;;;;5072021;28;20459;-79
2023/04/02 04:12:41;;;;;;;0.38;0.38;;;;;;;;;;5062410;28;20051;-80
2023/04/02 04:15:12;;;;;;;0.30;0.30;;;;;;;;;;5075519;28;20085;-80
2023/04/02 04:17:52;;;;;;;1.60;0.47;;;;;;;;;;5073257;28;20035;-80
2023/04/02 04:20:24;;;;;;;0.30;0.30;;;;;;;;;;5072057;28;20446;-79
2023/04/02 04:22:54;;;;;;;0.40;0.40;;;;;;;;;;5063874;28;20035;-79
2023/04/02 04:25:32;;;;;;;0.40;0.40;;;;;;;;;;5075971;28;20032;-77
2023/04/02 04:28:11;;;;;;;1.30;0.47;;;;;;;;;;5067884;28;20044;-79
2023/04/02 04:31:10;;;;;;;0.60;0.55;;;;;;;;;;5074217;28;20068;-79
2023/04/02 04:33:44;;;;;;;0.50;0.50;;;;;;;;;;5054852;28;20403;-80
2023/04/02 04:36:27;;;;;;;0.50;0.50;;;;;;;;;;5071175;28;20061;-79
2023/04/02 04:38:58;;;;;;;0.30;0.30;;;;;;;;;;5053064;28;20035;-78
2023/04/02 04:41:29;;;;;;;0.40;0.40;;;;;;;;;;5073804;28;20021;-80
2023/04/02 04:44:27;;;;;;;4.47;0.50;;;;;;;;;;5070474;28;20060;-79
2023/04/02 04:47:02;;;;;;;0.60;0.50;;;;;;;;;;5070032;28;20081;-80
2023/04/02 04:50:04;;;;;;;0.43;0.43;;;;;;;;;;5071150;28;20480;-79
2023/04/02 04:52:35;;;;;;;0.50;0.50;;;;;;;;;;5069007;28;20083;-79
2023/04/02 04:55:01;;;;;;;0.45;0.45;;;;;;;;;;5056603;28;20033;-80
2023/04/02 04:57:35;;;;;;;1.55;1.00;;;;;;;;;;5049603;28;20032;-80
2023/04/02 05:00:12;;;;;;;0.50;0.50;;;;;;;;;;5076140;28;20039;-80
2023/04/02 05:02:46;;;;;;;0.35;0.35;;;;;;;;;;5073462;28;20063;-80
2023/04/02 05:05:23;;;;;;;1.00;0.60;;;;;;;;;;5067985;28;20066;-79
2023/04/02 05:07:54;;;;;;;0.40;0.40;;;;;;;;;;5063165;28;20020;-79
2023/04/02 05:10:41;;;;;;;0.55;0.45;;;;;;;;;;5071136;28;20031;-79
2023/04/02 05:13:14;;;;;;;0.50;0.50;;;;;;;;;;5074767;28;20083;-80
2023/04/02 05:16:03;;;;;;;1.50;0.45;;;;;;;;;;5069934;28;20028;-78
2023/04/02 05:18:55;;;;;;;1.00;0.50;;;;;;;;;;5069850;28;20043;-78
2023/04/02 05:21:46;;;;;;;1.45;0.50;;;;;;;;;;5077952;28;20036;-78
2023/04/02 05:24:43;;;;;;;0.50;0.50;;;;;;;;;;5074229;28;20477;-80
2023/04/02 05:27:20;;;;;;;0.52;0.52;;;;;;;;;;5071335;28;20023;-79
2023/04/02 05:29:52;;;;;;;0.50;0.50;;;;;;;;;;5072844;28;20499;-78
2023/04/02 05:32:31;;;;;;;0.75;0.68;;;;;;;;;;5076400;28;20032;-79
2023/04/02 05:34:58;;;;;;;0.57;0.57;;;;;;;;;;5067944;28;20096;-79
2023/04/02 05:37:27;;;;;;;0.47;0.47;;;;;;;;;;5057361;28;20032;-79
2023/04/02 05:39:56;;;;;;;0.40;0.40;;;;;;;;;;5073070;28;20080;-79
2023/04/02 05:42:25;;;;;;;0.60;0.60;;;;;;;;;;5070141;28;20037;-79
2023/04/02 05:45:03;;;;;;;0.50;0.50;;;;;;;;;;5074401;28;20020;-80
2023/04/02 05:47:30;;;;;;;0.50;0.50;;;;;;;;;;5065843;28;20020;-78
2023/04/02 05:50:22;;;;;;;0.60;0.60;;;;;;;;;;5058309;28;20063;-79
2023/04/02 05:52:53;;;;;;;0.43;0.40;;;;;;;;;;5072227;28;20069;-79
2023/04/02 05:55:29;;;;;;;0.47;0.47;;;;;;;;;;5068566;28;20029;-79
2023/04/02 05:58:01;;;;;;;0.93;0.52;;;;;;;;;;5072157;28;20107;-78
2023/04/02 06:00:38;;;;;;;0.50;0.50;;;;;;;;;;5066347;28;20028;-80
2023/04/02 06:03:16;;;;;;;0.40;0.40;;;;;;;;;;5078340;28;20021;-78
2023/04/02 06:05:44;;;;;;;1.75;0.52;;;;;;;;;;5075757;28;20026;-79
2023/04/02 06:08:16;;;;;;;0.57;0.55;;;;;;;;;;5075664;28;20017;-78
2023/04/02 06:10:48;;;;;;;0.40;0.40;;;;;;;;;;5073357;28;20028;-78
2023/04/02 06:13:17;;;;;;;0.30;0.30;;;;;;;;;;5071981;28;20021;-79
2023/04/02 06:15:43;;;;;;;1.60;0.80;;;;;;;;;;5073991;28;20039;-79
2023/04/02 06:18:18;;;;;;;1.42;0.50;;;;;;;;;;5067986;28;20029;-79
2023/04/02 06:20:43;;;;;;;0.60;0.60;;;;;;;;;;5073297;28;20023;-79
2023/04/02 06:23:15;;;;;;;1.27;0.82;;;;;;;;;;5066448;28;20100;-80
2023/04/02 06:26:06;;;;;;;0.40;0.40;;;;;;;;;;5063685;28;20029;-79
2023/04/02 06:28:50;;;;;;;0.65;0.65;;;;;;;;;;5066393;28;20029;-79
2023/04/02 06:31:44;;;;;;;0.85;0.55;;;;;;;;;;5070502;28;20070;-80
2023/04/02 06:34:19;;;;;;;0.88;0.85;;;;;;;;;;5056026;28;20047;-80
2023/04/02 06:36:45;;;;;;;1.60;0.77;;;;;;;;;;5075833;28;20027;-80
2023/04/02 06:39:17;;;;;;;0.43;0.43;;;;;;;;;;5053897;28;20020;-80
2023/04/02 06:41:43;;;;;;;0.95;0.50;;;;;;;;;;5052814;28;20053;-80
2023/04/02 06:44:18;;;;;;;0.40;0.40;;;;;;;;;;5069923;28;20365;-80
2023/04/02 06:46:50;;;;;;;0.65;0.65;;;;;;;;;;5074383;28;20119;-79
2023/04/02 06:49:20;;;;;;;0.52;0.45;;;;;;;;;;5067811;28;20025;-78
2023/04/02 06:51:48;;;;;;;0.60;0.60;;;;;;;;;;5078606;28;20036;-79
2023/04/02 06:54:16;;;;;;;0.70;0.70;;;;;;;;;;5079168;28;20033;-79
2023/04/02 06:56:44;;;;;;;0.60;0.60;;;;;;;;;;5079125;28;20071;-79
2023/04/02 06:59:11;;;;;;;3.88;0.75;;;;;;;;;;5064317;28;20104;-80
2023/04/02 07:01:50;;;;;;;1.88;0.90;;;;;;;;;;5075911;28;20063;-79
2023/04/02 07:04:16;;;;;;;0.40;0.40;;;;;;;;;;5074906;28;20020;-79
2023/04/02 07:06:42;;;;;;;0.55;0.55;;;;;;;;;;5074681;28;20551;-79
2023/04/02 07:09:07;;;;;;;0.63;0.63;;;;;;;;;;5068788;28;20025;-80
2023/04/02 07:11:33;;;;;;;0.90;0.68;;;;;;;;;;5061713;28;20032;-79
2023/04/02 07:13:58;;;;;;;0.55;0.50;;;;;;;;;;5071367;28;20051;-80
2023/04/02 07:16:26;;;;;;;3.83;0.70;;;;;;;;;;5077927;28;20020;-79
2023/04/02 07:18:52;;;;;;;0.40;0.40;;;;;;;;;;5070069;28;20029;-79
2023/04/02 07:21:17;;;;;;;0.68;0.65;;;;;;;;;;5073392;28;20035;-79
2023/04/02 07:23:43;;;;;;;0.50;0.50;;;;;;;;;;5078867;28;20020;-78
2023/04/02 07:26:16;;;;;;;1.98;0.70;;;;;;;;;;5078369;28;20546;-80
2023/04/02 07:28:42;;;;;;;0.60;0.60;;;;;;;;;;5078054;28;20031;-79
2023/04/02 07:31:16;;;;;;;0.98;0.65;;;;;;;;;;5068141;28;20024;-79
2023/04/02 07:33:42;;;;;;;0.50;0.50;;;;;;;;;;5072283;28;20024;-79
2023/04/02 07:36:16;;;;;;;0.63;0.55;;;;;;;;;;5062199;28;20528;-78
2023/04/02 07:38:41;;;;;;;4.65;0.70;;;;;;;;;;5071268;28;20024;-79
2023/04/02 07:41:07;;;;;;;0.50;0.50;;;;;;;;;;5078262;28;20404;-80
2023/04/02 07:43:32;;;;;;;1.40;0.52;;;;;;;;;;5071356;28;20040;-79
2023/04/02 07:45:58;;;;;;;0.90;0.80;;;;;;;;;;5067299;28;20485;-80
2023/04/02 07:48:24;;;;;;;0.65;0.65;;;;;;;;;;5074750;28;20031;-80
2023/04/02 07:50:50;;;;;;;3.72;0.55;;;;;;;;;;5075076;28;20024;-79
2023/04/02 07:53:37;;;;;;;0.35;0.35;;;;;;;;;;5075047;28;20024;-80
2023/04/02 07:56:03;;;;;;;0.70;0.70;;;;;;;;;;5070171;28;20032;-78
2023/04/02 07:58:31;;;;;;;0.52;0.52;;;;;;;;;;5065229;28;20056;-79
2023/04/02 08:00:56;;;;;;;0.45;0.45;;;;;;;;;;5074392;28;20103;-78
2023/04/02 08:03:22;;;;;;;0.70;0.70;;;;;;;;;;5073374;28;20064;-80
2023/04/02 08:05:56;;;;;;;0.60;0.60;;;;;;;;;;5076634;28;20047;-78
2023/04/02 08:08:22;;;;;;;0.63;0.63;;;;;;;;;;5070757;28;20093;-80
2023/04/02 08:10:48;;;;;;;0.50;0.50;;;;;;;;;;5052805;28;20055;-79
2023/04/02 08:13:15;;;;;;;0.75;0.75;;;;;;;;;;5069091;28;20032;-79
2023/04/02 08:15:41;;;;;;;0.57;0.57;;;;;;;;;;5064399;28;20036;-80
2023/04/02 08:18:06;;;;;;;0.63;0.63;;;;;;;;;;5069269;28;20426;-80
2023/04/02 08:20:32;;;;;;;0.52;0.52;;;;;;;;;;5069912;28;20016;-78
2023/04/02 08:22:59;;;;;;;0.52;0.52;;;;;;;;;;5071213;28;20040;-78
2023/04/02 08:25:25;;;;;;;0.80;0.77;;;;;;;;;;5075937;28;20096;-77
2023/04/02 08:27:50;;;;;;;0.75;0.75;;;;;;;;;;5075372;28;20040;-78
2023/04/02 08:30:17;;;;;;;1.40;0.85;;;;;;;;;;5059891;28;20044;-78
2023/04/02 08:32:42;;;;;;;1.13;0.77;;;;;;;;;;5080642;28;20439;-79
2023/04/02 08:35:10;;;;;;;0.80;0.80;;;;;;;;;;5041555;28;20040;-80
2023/04/02 08:37:35;;;;;;;1.73;0.80;;;;;;;;;;5070110;28;20021;-79
2023/04/02 08:40:02;;;;;;;0.90;0.90;;;;;;;;;;5067463;28;20037;-79
2023/04/02 08:42:30;;;;;;;6.50;0.90;;;;;;;;;;5078215;28;20024;-79
2023/04/02 08:45:12;;;;;;;1.15;0.60;;;;;;;;;;5077485;28;20074;-79
2023/04/02 08:47:39;;;;;;;0.60;0.60;;;;;;;;;;5070201;28;20020;-80
2023/04/02 08:50:08;;;;;;;0.88;0.60;;;;;;;;;;5074582;28;20517;-77
2023/04/02 08:52:37;;;;;;;0.60;0.60;;;;;;;;;;5067334;28;20327;-80
2023/04/02 08:55:12;;;;;;;0.70;0.70;;;;;;;;;;5058632;28;20021;-78
2023/04/02 08:57:45;;;;;;;0.77;0.77;;;;;;;;;;5059945;28;20025;-80
2023/04/02 09:00:25;;;;;;;0.70;0.70;;;;;;;;;;5076034;28;20035;-80
2023/04/02 09:03:01;;;;;;;1.02;0.60;;;;;;;;;;5072910;28;20021;-79
2023/04/02 09:05:30;;;;;;;0.70;0.70;;;;;;;;;;5076643;28;20040;-79
2023/04/02 09:08:00;;;;;;;0.90;0.90;;;;;;;;;;5077007;28;20029;-80
2023/04/02 09:10:44;;;;;;;0.80;0.80;;;;;;;;;;5071376;28;20098;-80
2023/04/02 09:13:22;;;;;;;1.33;0.80;;;;;;;;;;5078034;28;20024;-80
2023/04/02 09:15:51;;;;;;;0.60;0.60;;;;;;;;;;5073514;28;20021;-80
2023/04/02 09:18:18;;;;;;;0.70;0.70;;;;;;;;;;5078478;28;20021;-80
2023/04/02 09:20:44;;;;;;;0.88;0.88;;;;;;;;;;5074601;28;20035;-81
2023/04/02 09:23:17;;;;;;;2.75;0.88;;;;;;;;;;5080022;28;20020;-81
2023/04/02 09:25:46;;;;;;;0.70;0.70;;;;;;;;;;5076270;28;20016;-81
2023/04/02 09:28:12;;;;;;;1.40;0.60;;;;;;;;;;5052534;28;20389;-79
2023/04/02 09:30:59;;;;;;;2.70;0.63;;;;;;;;;;5076200;28;20021;-78
2023/04/02 09:33:44;;;;;;;1.70;0.80;;;;;;;;;;5065731;28;20070;-80
2023/04/02 09:36:34;;;;;;;1.02;0.77;;;;;;;;;;5074406;28;20020;-78
2023/04/02 09:39:21;;;;;;;0.60;0.57;;;;;;;;;;5070696;28;20028;-79
2023/04/02 09:41:48;;;;;;;0.50;0.50;;;;;;;;;;5065560;28;20464;-78
2023/04/02 09:44:24;;;;;;;0.65;0.65;;;;;;;;;;5072238;28;20030;-78
2023/04/02 09:47:02;;;;;;;0.45;0.43;;;;;;;;;;5080202;28;20502;-79
2023/04/02 09:49:31;;;;;;;0.40;0.40;;;;;;;;;;5071764;28;20024;-83
2023/04/02 09:52:16;;;;;;;0.40;0.40;;;;;;;;;;5057149;28;20021;-79
2023/04/02 09:54:42;;;;;;;0.40;0.40;;;;;;;;;;5066949;28;20028;-83
2023/04/02 09:57:20;;;;;;;0.22;0.22;;;;;;;;;;5065993;28;20088;-81
2023/04/02 09:59:45;;;;;;;0.38;0.38;;;;;;;;;;5078749;28;20150;-80
2023/04/02 10:02:27;;;;;;;0.45;0.40;;;;;;;;;;5074779;28;20052;-80
2023/04/02 10:04:52;;;;;;;0.32;0.32;;;;;;;;;;5070595;28;20013;-80
2023/04/02 10:07:41;;;;;;;0.40;0.40;;;;;;;;;;5060129;28;20033;-80
2023/04/02 10:10:21;;;;;;;0.50;0.50;;;;;;;;;;5060196;28;20388;-81
2023/04/02 10:13:25;;;;;;;0.38;0.38;;;;;;;;;;5071530;28;20107;-80
2023/04/02 10:16:10;;;;;;;0.45;0.45;;;;;;;;;;5064633;28;20130;-80
2023/04/02 10:18:54;;;;;;;0.50;0.50;;;;;;;;;;5048412;28;20028;-80
2023/04/02 10:21:26;;;;;;;0.63;0.63;;;;;;;;;;5071424;28;20036;-80
2023/04/02 10:23:52;;;;;;;0.57;0.57;;;;;;;;;;5065041;28;20013;-80
2023/04/02 10:26:24;;;;;;;0.60;0.60;;;;;;;;;;5071607;28;20115;-78
2023/04/02 10:29:20;;;;;;;0.40;0.40;;;;;;;;;;5066985;28;20020;-78
2023/04/02 10:31:46;;;;;;;0.60;0.50;;;;;;;;;;5074373;28;20028;-79
2023/04/02 10:34:44;;;;;;;0.30;0.30;;;;;;;;;;5072596;28;20391;-79
2023/04/02 10:37:43;;;;;;;0.30;0.30;;;;;;;;;;5054950;28;20049;-79
2023/04/02 10:40:16;;;;;;;0.40;0.40;;;;;;;;;;5070456;28;20044;-79
2023/04/02 10:42:45;;;;;;;0.30;0.30;;;;;;;;;;5059491;28;20032;-79
2023/04/02 10:45:35;;;;;;;0.40;0.40;;;;;;;;;;5069154;28;20488;-78
2023/04/02 10:48:23;;;;;;;0.35;0.35;;;;;;;;;;5062764;28;20020;-78
2023/04/02 10:50:59;;;;;;;0.28;0.28;;;;;;;;;;5068208;28;20388;-78
2023/04/02 10:53:39;;;;;;;0.30;0.30;;;;;;;;;;5066177;28;20017;-78
2023/04/02 10:56:10;;;;;;;0.50;0.50;;;;;;;;;;5071374;28;20024;-79
2023/04/02 10:58:41;;;;;;;0.40;0.40;;;;;;;;;;5067841;28;20032;-78
2023/04/02 11:01:19;;;;;;;0.50;0.50;;;;;;;;;;5065860;28;20724;-79
2023/04/02 11:03:57;;;;;;;0.65;0.65;;;;;;;;;;5069971;28;20274;-78
2023/04/02 11:06:31;;;;;;;0.50;0.50;;;;;;;;;;5064293;28;20029;-78
2023/04/02 11:09:02;;;;;;;1.45;0.60;;;;;;;;;;5075551;28;20438;-78
2023/04/02 11:11:37;;;;;;;0.32;0.32;;;;;;;;;;5075940;28;20020;-78
2023/04/02 11:14:14;;;;;;;0.70;0.70;;;;;;;;;;5072739;28;20039;-78
2023/04/02 11:16:40;;;;;;;0.47;0.40;;;;;;;;;;5069122;28;20139;-79
2023/04/02 11:19:14;;;;;;;0.57;0.57;;;;;;;;;;5069263;28;20078;-79
2023/04/02 11:21:55;;;;;;;0.50;0.50;;;;;;;;;;5068012;28;20025;-79
2023/04/02 11:24:32;;;;;;;0.30;0.30;;;;;;;;;;5067627;28;20503;-79
2023/04/02 11:27:10;;;;;;;0.43;0.43;;;;;;;;;;5055309;28;20123;-79
2023/04/02 11:29:48;;;;;;;0.40;0.40;;;;;;;;;;5070406;28;20035;-79
2023/04/02 11:32:20;;;;;;;1.90;0.57;;;;;;;;;;5070447;28;20380;-78
2023/04/02 11:34:45;;;;;;;0.40;0.40;;;;;;;;;;5071450;28;20567;-79
2023/04/02 11:37:37;;;;;;;0.40;0.40;;;;;;;;;;5077594;28;20055;-79
2023/04/02 11:40:14;;;;;;;0.70;0.70;;;;;;;;;;5074312;28;20021;-78
2023/04/02 11:42:44;;;;;;;0.80;0.80;;;;;;;;;;5072430;28;20543;-78
2023/04/02 11:45:27;;;;;;;0.50;0.50;;;;;;;;;;5074665;28;20100;-79
2023/04/02 11:47:59;;;;;;;1.70;1.30;;;;;;;;;;5066928;28;20096;-79
2023/04/02 11:50:33;;;;;;;0.60;0.60;;;;;;;;;;5076958;28;20024;-79
2023/04/02 11:53:05;;;;;;;0.30;0.30;;;;;;;;;;5065953;28;20037;-79
2023/04/02 11:55:35;;;;;;;0.40;0.40;;;;;;;;;;5076647;28;20028;-80
2023/04/02 11:58:08;;;;;;;0.50;0.50;;;;;;;;;;5074570;28;20476;-78
2023/04/02 12:01:17;;;;;;;0.60;0.60;;;;;;;;;;5074516;28;20028;-79
2023/04/02 12:04:27;;;;;;;1.90;0.60;;;;;;;;;;5073205;28;20067;-79
2023/04/02 12:06:59;;;;;;;0.60;0.60;;;;;;;;;;5038800;28;20412;-78
2023/04/02 12:09:28;;;;;;;0.60;0.60;;;;;;;;;;5070866;28;20074;-79
2023/04/02 12:11:59;;;;;;;0.50;0.50;;;;;;;;;;5070560;28;20028;-79
2023/04/02 12:14:36;;;;;;;1.70;0.60;;;;;;;;;;5076274;28;20488;-79
2023/04/02 12:17:17;;;;;;;0.50;0.50;;;;;;;;;;5066376;28;20033;-79
2023/04/02 12:19:50;;;;;;;0.45;0.45;;;;;;;;;;5070061;28;20022;-83
2023/04/02 12:22:26;;;;;;;0.40;0.40;;;;;;;;;;5065347;28;20029;-78
2023/04/02 12:24:55;;;;;;;0.47;0.47;;;;;;;;;;5068894;28;20364;-79
2023/04/02 12:27:26;;;;;;;0.73;0.73;;;;;;;;;;5046019;28;20325;-78
2023/04/02 12:29:53;;;;;;;2.33;0.85;;;;;;;;;;5061957;28;20373;-78
2023/04/02 12:32:27;;;;;;;0.75;0.70;;;;;;;;;;5067016;28;20040;-78
2023/04/02 12:34:55;;;;;;;0.57;0.57;;;;;;;;;;5047566;28;20499;-78
2023/04/02 12:37:23;;;;;;;0.88;0.80;;;;;;;;;;5052389;28;20405;-78
2023/04/02 12:40:05;;;;;;;0.73;0.70;;;;;;;;;;5076759;28;20078;-79
2023/04/02 12:42:34;;;;;;;0.80;0.80;;;;;;;;;;5071406;28;20021;-78
2023/04/02 12:45:00;;;;;;;0.68;0.68;;;;;;;;;;5055573;28;20047;-78
2023/04/02 12:47:26;;;;;;;0.95;0.90;;;;;;;;;;5070791;28;20102;-79
2023/04/02 12:49:53;;;;;;;0.82;0.70;;;;;;;;;;5078392;28;20025;-78
2023/04/02 12:52:21;;;;;;;0.80;0.80;;;;;;;;;;5074634;28;20028;-78
2023/04/02 12:54:52;;;;;;;2.28;1.02;;;;;;;;;;5072824;28;20025;-79
2023/04/02 12:57:30;;;;;;;0.82;0.82;;;;;;;;;;5078734;28;20579;-78
2023/04/02 13:00:17;;;;;;;0.80;0.80;;;;;;;;;;5067435;28;20147;-78
2023/04/02 13:02:45;;;;;;;0.80;0.55;;;;;;;;;;5075672;28;20021;-78
2023/04/02 13:05:11;;;;;;;0.80;0.80;;;;;;;;;;5081683;28;20076;-78
2023/04/02 13:07:37;;;;;;;2.28;1.10;;;;;;;;;;5083489;28;20036;-78
2023/04/02 13:10:20;;;;;;;1.30;1.17;;;;;;;;;;5079741;28;20066;-77
2023/04/02 13:12:46;;;;;;;0.93;0.80;;;;;;;;;;5069650;28;20440;-80
2023/04/02 13:15:43;;;;;;;0.80;0.80;;;;;;;;;;5055060;28;20139;-78
2023/04/02 13:18:11;;;;;;;1.27;1.08;;;;;;;;;;5005387;28;20045;-77
2023/04/02 13:20:42;;;;;;;1.00;1.00;;;;;;;;;;5069643;28;21334;-78
2023/04/02 13:23:26;;;;;;;1.20;1.05;;;;;;;;;;5066251;28;20035;-78
2023/04/02 13:25:52;;;;;;;1.20;1.17;;;;;;;;;;5069588;28;20050;-78
2023/04/02 13:28:18;;;;;;;0.70;0.70;;;;;;;;;;5081241;28;20040;-77
2023/04/02 13:30:44;;;;;;;3.67;1.02;;;;;;;;;;5083117;28;20034;-77
2023/04/02 13:33:10;;;;;;;1.00;1.00;;;;;;;;;;5067937;28;20020;-77
2023/04/02 13:35:35;;;;;;;1.17;0.77;;;;;;;;;;5074442;28;20484;-77
2023/04/02 13:38:01;;;;;;;0.88;0.88;;;;;;;;;;5069518;28;20021;-76
2023/04/02 13:40:27;;;;;;;1.48;1.17;;;;;;;;;;5071023;28;20403;-78
2023/04/02 13:42:53;;;;;;;2.72;1.75;;;;;;;;;;5075340;28;20048;-78
2023/04/02 13:45:27;;;;;;;1.60;1.27;;;;;;;;;;5078151;28;20031;-79
2023/04/02 13:47:53;;;;;;;1.45;1.20;;;;;;;;;;5070950;28;20032;-78
2023/04/02 13:50:22;;;;;;;2.95;1.80;;;;;;;;;;5060299;28;20029;-78
2023/04/02 13:52:50;;;;;;;3.22;1.70;;;;;;;;;;5069723;28;20024;-78
2023/04/02 13:55:16;;;;;;;1.00;0.95;;;;;;;;;;5060098;28;20078;-78
2023/04/02 13:57:42;;;;;;;0.88;0.88;;;;;;;;;;5062591;28;20090;-78
2023/04/02 14:00:08;;;;;;;0.90;0.90;;;;;;;;;;5070406;28;20488;-79
2023/04/02 14:02:34;;;;;;;1.15;1.02;;;;;;;;;;5073039;28;20074;-79
2023/04/02 14:05:12;;;;;;;1.02;1.00;;;;;;;;;;5055181;28;20009;-78
2023/04/02 14:08:01;;;;;;;1.60;1.15;;;;;;;;;;5072622;28;20489;-78
2023/04/02 14:10:32;;;;;;;1.05;1.00;;;;;;;;;;5071952;28;20033;-80
2023/04/02 14:13:19;;;;;;;1.20;1.17;;;;;;;;;;5070361;28;20028;-79
2023/04/02 14:15:57;;;;;;;0.82;0.82;;;;;;;;;;5056068;28;20311;-78
2023/04/02 14:18:46;;;;;;;0.85;0.85;;;;;;;;;;5073248;28;20024;-78
2023/04/02 14:21:33;;;;;;;1.35;1.25;;;;;;;;;;5069267;28;20078;-78
2023/04/02 14:24:10;;;;;;;0.82;0.82;;;;;;;;;;5070867;28;20051;-79
2023/04/02 14:26:50;;;;;;;1.10;1.10;;;;;;;;;;5066237;28;20026;-78
2023/04/02 14:29:22;;;;;;;1.17;1.08;;;;;;;;;;5067702;28;20052;-77
2023/04/02 14:32:13;;;;;;;0.80;0.80;;;;;;;;;;5074394;28;20381;-78
2023/04/02 14:34:57;;;;;;;4.70;1.10;;;;;;;;;;5062536;28;20032;-78
2023/04/02 14:37:37;;;;;;;1.05;0.98;;;;;;;;;;5060343;28;21129;-78
2023/04/02 14:40:24;;;;;;;1.45;1.35;;;;;;;;;;5055252;28;20108;-79
2023/04/02 14:42:57;;;;;;;1.35;1.25;;;;;;;;;;5069851;28;20042;-81
2023/04/02 14:45:54;;;;;;;1.23;1.13;;;;;;;;;;5067708;28;20481;-79
2023/04/02 14:48:25;;;;;;;1.13;1.02;;;;;;;;;;5067144;28;20024;-81
2023/04/02 14:51:11;;;;;;;1.55;0.85;;;;;;;;;;5056383;28;20459;-80
2023/04/02 14:54:13;;;;;;;1.10;1.00;;;;;;;;;;5049611;28;20037;-81
2023/04/02 14:56:49;;;;;;;0.93;0.85;;;;;;;;;;5028394;28;20135;-79
2023/04/02 14:59:24;;;;;;;1.05;1.00;;;;;;;;;;5069599;28;20086;-79
2023/04/02 15:01:55;;;;;;;1.23;1.13;;;;;;;;;;5066163;28;20385;-81
2023/04/02 15:04:31;;;;;;;1.65;1.25;;;;;;;;;;5065715;28;20035;-80
2023/04/02 15:07:03;;;;;;;1.08;1.00;;;;;;;;;;5065445;28;20025;-81
2023/04/02 15:09:36;;;;;;;1.55;0.93;;;;;;;;;;5065961;28;20034;-81
2023/04/02 15:12:08;;;;;;;1.08;1.08;;;;;;;;;;5066855;28;20020;-79
2023/04/02 15:14:39;;;;;;;1.10;1.00;;;;;;;;;;5067030;28;20175;-80
2023/04/02 15:17:08;;;;;;;0.80;0.80;;;;;;;;;;5061367;28;20029;-80
2023/04/02 15:19:33;;;;;;;0.85;0.85;;;;;;;;;;5080543;28;20449;-82
2023/04/02 15:22:40;;;;;;;0.65;0.65;;;;;;;;;;5069099;28;20029;-80
2023/04/02 15:25:12;;;;;;;0.75;0.75;;;;;;;;;;5074700;28;20414;-80